createdAt,value
2023-03-28T00:02:59.622Z,5.20
2023-03-28T00:06:03.515Z,5.10
2023-03-28T00:09:06.908Z,5.10
2023-03-28T00:12:11.767Z,5.20
2023-03-28T00:15:15.498Z,5.10
2023-03-28T00:18:18.589Z,5.10
2023-03-28T00:21:24.707Z,5.10
2023-03-28T00:24:28.057Z,5.10
2023-03-28T00:27:33.534Z,5.10
2023-03-28T00:30:36.718Z,5.10
2023-03-28T00:33:39.806Z,5.10
2023-03-28T00:36:43.098Z,5.10
2023-03-28T00:39:49.977Z,5.20
2023-03-28T00:42:55.137Z,5.20
2023-03-28T00:46:08.706Z,5.20
2023-03-28T00:49:15.527Z,5.20
2023-03-28T00:52:21.537Z,5.20
2023-03-28T00:55:29.544Z,5.40
2023-03-28T00:58:39.056Z,5.50
2023-03-28T01:01:42.330Z,5.50
2023-03-28T01:04:52.359Z,5.60
2023-03-28T01:08:00.329Z,5.60
2023-03-28T01:11:03.906Z,5.60
2023-03-28T01:14:13.302Z,5.70
2023-03-28T01:17:17.122Z,5.70
2023-03-28T01:20:36.016Z,5.80
2023-03-28T01:24:27.665Z,5.70
2023-03-28T01:27:36.195Z,5.70
2023-03-28T01:31:04.894Z,5.50
2023-03-28T01:34:44.484Z,5.40
2023-03-28T01:37:55.518Z,5.30
2023-03-28T01:41:06.323Z,5.10
2023-03-28T01:44:14.357Z,5.00
2023-03-28T01:47:22.255Z,4.90
2023-03-28T01:50:31.503Z,4.90
2023-03-28T01:53:43.407Z,4.90
2023-03-28T01:56:52.264Z,4.90
2023-03-28T02:00:05.467Z,4.90
2023-03-28T02:03:13.987Z,5.00
2023-03-28T02:06:21.204Z,4.90
2023-03-28T02:09:27.584Z,4.90
2023-03-28T02:12:36.204Z,5.00
2023-03-28T02:15:41.995Z,5.00
2023-03-28T02:18:50.356Z,5.10
2023-03-28T02:22:04.397Z,5.00
2023-03-28T02:25:10.337Z,5.00
2023-03-28T02:28:14.841Z,5.00
2023-03-28T02:31:18.077Z,5.00
2023-03-28T02:34:21.322Z,5.00
2023-03-28T02:37:38.459Z,4.90
2023-03-28T02:40:53.560Z,4.90
2023-03-28T02:44:10.950Z,4.90
2023-03-28T02:47:19.472Z,4.80
2023-03-28T02:50:27.418Z,4.70
2023-03-28T02:53:38.858Z,4.60
2023-03-28T02:56:52.977Z,4.50
2023-03-28T02:59:58.975Z,4.40
2023-03-28T03:03:04.066Z,4.40
2023-03-28T03:06:08.270Z,4.30
2023-03-28T03:09:11.423Z,4.30
2023-03-28T03:12:15.977Z,4.30
2023-03-28T03:15:19.255Z,4.20
2023-03-28T03:18:22.486Z,4.20
2023-03-28T03:21:25.680Z,4.10
2023-03-28T03:24:28.805Z,4.00
2023-03-28T03:27:34.301Z,4.00
2023-03-28T03:30:37.688Z,3.90
2023-03-28T03:33:41.629Z,3.90
2023-03-28T03:36:45.108Z,3.90
2023-03-28T03:39:48.598Z,3.90
2023-03-28T03:42:53.095Z,3.90
2023-03-28T03:45:57.839Z,3.90
2023-03-28T03:49:01.138Z,4.00
2023-03-28T03:52:04.373Z,4.10
2023-03-28T03:55:08.076Z,4.10
2023-03-28T03:58:12.668Z,4.20
2023-03-28T04:01:15.801Z,4.20
2023-03-28T04:04:19.026Z,4.20
2023-03-28T04:07:22.221Z,4.30
2023-03-28T04:10:25.585Z,4.30
2023-03-28T04:13:30.154Z,4.30
2023-03-28T04:16:40.985Z,4.30
2023-03-28T04:19:46.001Z,4.30
2023-03-28T04:22:49.234Z,4.20
2023-03-28T04:25:55.336Z,4.10
2023-03-28T04:29:00.462Z,4.00
2023-03-28T04:32:05.844Z,4.00
2023-03-28T04:35:11.278Z,3.90
2023-03-28T04:38:20.698Z,3.90
2023-03-28T04:41:25.793Z,3.90
2023-03-28T04:44:31.175Z,3.90
2023-03-28T04:47:34.562Z,3.80
2023-03-28T04:50:37.791Z,3.80
2023-03-28T04:53:41.018Z,3.70
2023-03-28T04:56:45.678Z,3.70
2023-03-28T04:59:50.301Z,3.70
2023-03-28T05:02:56.091Z,3.70
2023-03-28T05:05:59.475Z,3.70
2023-03-28T05:09:02.651Z,3.70
2023-03-28T05:12:06.173Z,3.60
2023-03-28T05:15:11.522Z,3.60
2023-03-28T05:18:26.182Z,3.60
2023-03-28T05:21:29.839Z,3.70
2023-03-28T05:24:34.592Z,3.70
2023-03-28T05:27:39.756Z,3.80
2023-03-28T05:30:44.325Z,3.80
2023-03-28T05:33:47.525Z,3.80
2023-03-28T05:36:51.181Z,3.90
2023-03-28T05:39:54.408Z,3.90
2023-03-28T05:42:57.610Z,4.00
2023-03-28T05:46:02.238Z,4.00
2023-03-28T05:49:05.445Z,4.00
2023-03-28T05:52:08.626Z,3.90
2023-03-28T05:55:11.833Z,3.90
2023-03-28T05:58:15.023Z,4.00
2023-03-28T06:01:23.490Z,4.00
2023-03-28T06:04:28.103Z,4.10
2023-03-28T06:07:41.565Z,4.20
2023-03-28T06:10:46.640Z,4.30
2023-03-28T06:13:50.156Z,4.40
2023-03-28T06:16:54.899Z,4.40
2023-03-28T06:19:58.182Z,4.50
2023-03-28T06:23:03.630Z,4.50
2023-03-28T06:26:07.301Z,4.50
2023-03-28T06:29:12.131Z,4.80
2023-03-28T06:32:18.008Z,4.90
2023-03-28T06:35:21.303Z,5.30
2023-03-28T06:38:24.528Z,6.50
2023-03-28T06:41:27.732Z,8.30
2023-03-28T06:44:31.237Z,10.80
2023-03-28T06:47:36.031Z,11.90
2023-03-28T06:50:39.265Z,13.70
2023-03-28T06:53:42.445Z,14.60
2023-03-28T06:56:45.706Z,15.70
2023-03-28T06:59:49.067Z,16.90
2023-03-28T07:02:53.744Z,17.30
2023-03-28T07:05:57.310Z,17.50
2023-03-28T07:09:01.599Z,18.30
2023-03-28T07:12:06.058Z,18.30
2023-03-28T07:15:10.437Z,18.80
2023-03-28T07:18:15.015Z,18.90
2023-03-28T07:21:19.768Z,19.30
2023-03-28T07:24:23.037Z,19.90
2023-03-28T07:27:26.286Z,20.70
2023-03-28T07:30:29.468Z,20.20
2023-03-28T07:33:37.431Z,20.20
2023-03-28T07:36:43.347Z,20.50
2023-03-28T07:39:46.762Z,21.00
2023-03-28T07:42:50.709Z,21.40
2023-03-28T07:45:54.317Z,21.20
2023-03-28T07:49:00.792Z,22.40
2023-03-28T07:52:04.146Z,23.60
2023-03-28T07:55:07.981Z,24.40
2023-03-28T07:58:11.271Z,23.70
2023-03-28T08:01:14.637Z,23.00
2023-03-28T08:04:19.464Z,23.60
2023-03-28T08:07:22.685Z,24.40
2023-03-28T08:10:25.847Z,25.70
2023-03-28T08:13:29.275Z,26.10
2023-03-28T08:16:33.622Z,26.20
2023-03-28T08:19:38.529Z,27.00
2023-03-28T08:22:42.352Z,28.40
2023-03-28T08:25:47.970Z,28.80
2023-03-28T08:28:51.322Z,28.70
2023-03-28T08:31:54.526Z,28.80
2023-03-28T08:35:02.907Z,29.60
2023-03-28T08:38:08.566Z,30.40
2023-03-28T08:41:29.572Z,29.20
2023-03-28T08:44:48.699Z,28.70
2023-03-28T08:48:03.480Z,29.40
2023-03-28T08:51:19.370Z,30.80
2023-03-28T08:54:25.903Z,31.40
2023-03-28T08:57:31.013Z,32.90
2023-03-28T09:00:37.177Z,33.40
2023-03-28T09:03:40.808Z,34.00
2023-03-28T09:06:47.539Z,33.70
2023-03-28T09:09:55.459Z,33.40
2023-03-28T09:13:10.518Z,34.20
2023-03-28T09:16:29.212Z,33.30
2023-03-28T09:19:56.187Z,32.00
2023-03-28T09:23:17.760Z,31.60
2023-03-28T09:26:25.393Z,31.20
2023-03-28T09:29:28.882Z,31.20
2023-03-28T09:32:37.149Z,30.80
2023-03-28T09:35:42.880Z,29.20
2023-03-28T09:38:49.777Z,29.00
2023-03-28T09:41:58.388Z,29.60
2023-03-28T09:45:06.388Z,29.60
2023-03-28T09:48:19.516Z,29.70
2023-03-28T09:51:23.215Z,31.50
2023-03-28T09:54:30.898Z,30.80
2023-03-28T09:58:06.431Z,29.80
2023-03-28T10:01:27.235Z,31.00
2023-03-28T10:04:36.462Z,31.60
2023-03-28T10:07:44.948Z,29.00
2023-03-28T10:11:08.020Z,26.30
2023-03-28T10:14:30.447Z,22.90
2023-03-28T10:17:36.816Z,22.70
2023-03-28T10:20:42.165Z,24.90
2023-03-28T10:23:51.013Z,25.80
2023-03-28T10:26:59.641Z,26.40
2023-03-28T10:30:16.207Z,25.10
2023-03-28T10:33:27.729Z,23.80
2023-03-28T10:36:33.408Z,23.10
2023-03-28T10:39:36.729Z,21.80
2023-03-28T10:42:46.366Z,20.40
2023-03-28T10:45:51.380Z,18.90
2023-03-28T10:48:59.661Z,18.10
2023-03-28T10:52:09.837Z,17.20
2023-03-28T10:55:17.513Z,16.70
2023-03-28T10:58:32.000Z,16.00
2023-03-28T11:01:44.318Z,15.20
2023-03-28T11:04:56.889Z,14.70
2023-03-28T11:08:08.543Z,14.60
2023-03-28T11:11:41.577Z,14.10
2023-03-28T11:14:55.726Z,14.30
2023-03-28T11:18:16.016Z,14.40
2023-03-28T11:21:29.407Z,13.80
2023-03-28T11:24:43.408Z,13.00
2023-03-28T11:27:52.078Z,12.90
2023-03-28T11:30:59.768Z,13.20
2023-03-28T11:34:08.481Z,13.00
2023-03-28T11:37:19.557Z,12.50
2023-03-28T11:40:27.656Z,12.20
2023-03-28T11:43:36.239Z,12.20
2023-03-28T11:46:45.849Z,12.60
2023-03-28T11:49:54.305Z,12.80
2023-03-28T11:53:03.480Z,13.20
2023-03-28T11:56:14.139Z,13.40
2023-03-28T11:59:22.913Z,13.30
2023-03-28T12:02:51.652Z,13.50
2023-03-28T12:06:04.833Z,13.20
2023-03-28T12:09:16.487Z,12.70
2023-03-28T12:12:25.077Z,12.40
2023-03-28T12:15:38.895Z,12.30
2023-03-28T12:18:47.992Z,12.40
2023-03-28T12:21:55.633Z,12.80
2023-03-28T12:25:09.006Z,13.10
2023-03-28T12:28:20.837Z,13.10
2023-03-28T12:31:29.600Z,13.20
2023-03-28T12:34:39.887Z,13.40
2023-03-28T12:37:54.702Z,13.50
2023-03-28T12:41:02.538Z,13.50
2023-03-28T12:44:09.986Z,13.20
2023-03-28T12:47:16.998Z,13.00
2023-03-28T12:50:29.265Z,13.00
2023-03-28T12:53:33.814Z,12.70
2023-03-28T12:56:37.134Z,12.50
2023-03-28T13:00:16.634Z,12.30
2023-03-28T13:03:32.711Z,11.70
2023-03-28T13:06:47.627Z,11.70
2023-03-28T13:10:00.846Z,12.00
2023-03-28T13:13:18.155Z,12.00
2023-03-28T13:16:26.168Z,12.20
2023-03-28T13:19:48.251Z,12.40
2023-03-28T13:22:54.708Z,12.50
2023-03-28T13:25:59.343Z,12.50
2023-03-28T13:29:02.828Z,12.30
2023-03-28T13:32:06.782Z,12.40
2023-03-28T13:35:45.109Z,12.50
2023-03-28T13:38:50.865Z,12.00
2023-03-28T13:42:01.783Z,11.60
2023-03-28T13:45:15.587Z,11.50
2023-03-28T13:48:18.834Z,11.40
2023-03-28T13:51:26.282Z,11.40
2023-03-28T13:54:30.557Z,11.40
2023-03-28T13:57:33.938Z,11.60
2023-03-28T14:00:37.258Z,11.70
2023-03-28T14:03:44.170Z,11.70
2023-03-28T14:06:51.201Z,11.50
2023-03-28T14:09:56.208Z,11.30
2023-03-28T14:13:02.446Z,11.00
2023-03-28T14:16:10.173Z,10.80
2023-03-28T14:19:20.042Z,10.70
2023-03-28T14:22:29.431Z,10.80
2023-03-28T14:25:33.830Z,10.80
2023-03-28T14:28:41.735Z,10.70
2023-03-28T14:31:47.593Z,10.60
2023-03-28T14:34:50.845Z,10.60
2023-03-28T14:37:56.948Z,10.70
2023-03-28T14:41:19.235Z,10.70
2023-03-28T14:44:22.733Z,10.60
2023-03-28T14:47:29.190Z,10.40
2023-03-28T14:50:36.190Z,10.20
2023-03-28T14:53:43.767Z,10.20
2023-03-28T14:56:47.942Z,10.20
2023-03-28T14:59:52.594Z,10.20
2023-03-28T15:02:56.836Z,10.10
2023-03-28T15:06:01.757Z,10.10
2023-03-28T15:09:12.557Z,10.10
2023-03-28T15:12:17.625Z,10.10
2023-03-28T15:15:24.071Z,10.10
2023-03-28T15:18:33.537Z,10.00
2023-03-28T15:21:38.123Z,9.90
2023-03-28T15:24:42.917Z,9.80
2023-03-28T15:27:51.485Z,9.90
2023-03-28T15:30:57.096Z,10.10
2023-03-28T15:34:00.460Z,10.20
2023-03-28T15:37:07.344Z,10.30
2023-03-28T15:40:32.240Z,10.40
2023-03-28T15:43:41.399Z,10.50
2023-03-28T15:46:47.044Z,10.40
2023-03-28T15:49:50.829Z,10.10
2023-03-28T15:52:58.205Z,10.00
2023-03-28T15:56:08.281Z,10.00
2023-03-28T15:59:14.687Z,9.90
2023-03-28T16:02:31.303Z,9.90
2023-03-28T16:05:37.627Z,9.90
2023-03-28T16:08:42.969Z,9.80
2023-03-28T16:11:48.985Z,9.80
2023-03-28T16:14:53.969Z,9.70
2023-03-28T16:17:59.012Z,9.70
2023-03-28T16:21:02.947Z,9.60
2023-03-28T16:24:06.610Z,9.50
2023-03-28T16:27:11.262Z,9.40
2023-03-28T16:30:20.578Z,9.20
2023-03-28T16:33:24.734Z,9.10
2023-03-28T16:36:28.207Z,9.00
2023-03-28T16:39:31.587Z,8.90
2023-03-28T16:42:36.126Z,8.70
2023-03-28T16:45:39.850Z,8.70
2023-03-28T16:48:43.159Z,8.60
2023-03-28T16:51:46.725Z,8.50
2023-03-28T16:54:50.069Z,8.50
2023-03-28T16:57:55.284Z,8.40
2023-03-28T17:00:59.236Z,8.40
2023-03-28T17:04:03.037Z,8.30
2023-03-28T17:07:07.327Z,8.20
2023-03-28T17:10:12.441Z,8.20
2023-03-28T17:13:17.770Z,8.10
2023-03-28T17:16:21.846Z,8.10
2023-03-28T17:19:25.152Z,8.00
2023-03-28T17:22:29.247Z,7.90
2023-03-28T17:25:41.632Z,7.90
2023-03-28T17:28:58.705Z,7.80
2023-03-28T17:32:03.754Z,7.80
2023-03-28T17:35:09.410Z,7.70
2023-03-28T17:38:16.089Z,7.60
2023-03-28T17:41:23.463Z,7.70
2023-03-28T17:44:29.579Z,7.70
2023-03-28T17:47:35.650Z,7.60
2023-03-28T17:50:39.955Z,7.70
2023-03-28T17:53:47.148Z,7.70
2023-03-28T17:56:51.717Z,7.60
2023-03-28T17:59:58.112Z,7.60
2023-03-28T18:03:02.527Z,7.60
2023-03-28T18:06:08.312Z,7.60
2023-03-28T18:09:12.704Z,7.50
2023-03-28T18:12:17.167Z,7.50
2023-03-28T18:15:23.659Z,7.50
2023-03-28T18:18:27.939Z,7.50
2023-03-28T18:21:33.223Z,7.50
2023-03-28T18:24:41.398Z,7.40
2023-03-28T18:27:45.167Z,7.40
2023-03-28T18:30:52.923Z,7.30
2023-03-28T18:33:58.820Z,7.30
2023-03-28T18:37:04.852Z,7.30
2023-03-28T18:40:11.572Z,7.30
2023-03-28T18:43:18.138Z,7.30
2023-03-28T18:46:26.786Z,7.30
2023-03-28T18:49:31.664Z,7.30
2023-03-28T18:52:37.999Z,7.20
2023-03-28T18:55:45.739Z,7.20
2023-03-28T18:58:52.182Z,7.20
2023-03-28T19:01:59.967Z,7.20
2023-03-28T19:05:05.821Z,7.20
2023-03-28T19:08:13.289Z,7.20
2023-03-28T19:11:20.329Z,7.20
2023-03-28T19:14:28.105Z,7.30
2023-03-28T19:17:36.521Z,7.30
2023-03-28T19:20:42.552Z,7.30
2023-03-28T19:23:49.930Z,7.30
2023-03-28T19:26:59.519Z,7.30
2023-03-28T19:30:07.219Z,7.20
2023-03-28T19:33:14.372Z,7.20
2023-03-28T19:36:20.100Z,7.10
2023-03-28T19:39:26.661Z,7.10
2023-03-28T19:42:31.881Z,7.10
2023-03-28T19:45:36.817Z,7.10
2023-03-28T19:48:43.553Z,7.00
2023-03-28T19:51:47.386Z,7.00
2023-03-28T19:54:52.036Z,6.90
2023-03-28T19:57:58.787Z,6.80
2023-03-28T20:01:04.779Z,6.80
2023-03-28T20:04:12.194Z,6.60
2023-03-28T20:07:19.796Z,6.60
2023-03-28T20:10:24.435Z,6.50
2023-03-28T20:13:28.657Z,6.50
2023-03-28T20:16:34.012Z,6.60
2023-03-28T20:19:40.387Z,6.60
2023-03-28T20:22:44.980Z,6.50
2023-03-28T20:25:50.030Z,6.50
2023-03-28T20:28:57.110Z,6.50
2023-03-28T20:32:01.250Z,6.40
2023-03-28T20:35:07.954Z,6.40
2023-03-28T20:38:12.064Z,6.40
2023-03-28T20:41:17.900Z,6.40
2023-03-28T20:44:21.487Z,6.40
2023-03-28T20:47:26.242Z,6.30
2023-03-28T20:50:34.250Z,6.20
2023-03-28T20:53:37.430Z,6.20
2023-03-28T20:56:41.270Z,6.20
2023-03-28T20:59:44.433Z,6.20
2023-03-28T21:02:53.686Z,6.20
2023-03-28T21:05:58.294Z,6.10
2023-03-28T21:09:04.614Z,6.20
2023-03-28T21:12:08.654Z,6.20
2023-03-28T21:15:12.787Z,6.20
2023-03-28T21:18:15.959Z,6.10
2023-03-28T21:21:22.006Z,6.00
2023-03-28T21:24:25.142Z,6.00
2023-03-28T21:27:28.372Z,6.00
2023-03-28T21:30:31.634Z,5.90
2023-03-28T21:33:36.608Z,5.90
2023-03-28T21:36:41.135Z,5.80
2023-03-28T21:39:44.392Z,5.80
2023-03-28T21:42:48.193Z,5.80
2023-03-28T21:45:51.433Z,5.80
2023-03-28T21:48:54.631Z,5.80
2023-03-28T21:51:59.241Z,5.70
2023-03-28T21:55:02.683Z,5.70
2023-03-28T21:58:06.240Z,5.70
2023-03-28T22:01:12.602Z,5.60
2023-03-28T22:04:15.901Z,5.70
2023-03-28T22:07:20.760Z,5.70
2023-03-28T22:10:26.494Z,5.70
2023-03-28T22:13:30.026Z,5.70
2023-03-28T22:16:35.194Z,5.60
2023-03-28T22:19:38.547Z,5.60
2023-03-28T22:22:45.050Z,5.50
2023-03-28T22:25:48.248Z,5.50
2023-03-28T22:28:51.424Z,5.50
2023-03-28T22:31:54.538Z,5.50
2023-03-28T22:34:57.764Z,5.50
2023-03-28T22:38:02.945Z,5.50
2023-03-28T22:41:06.787Z,5.50
2023-03-28T22:44:09.984Z,5.50
2023-03-28T22:47:13.172Z,5.50
2023-03-28T22:50:18.391Z,5.40
2023-03-28T22:53:26.079Z,5.40
2023-03-28T22:56:29.309Z,5.30
2023-03-28T22:59:33.058Z,5.30
2023-03-28T23:02:36.497Z,5.20
2023-03-28T23:05:39.675Z,5.20
2023-03-28T23:08:44.154Z,5.20
2023-03-28T23:11:47.705Z,5.30
2023-03-28T23:14:51.020Z,5.30
2023-03-28T23:17:54.276Z,5.40
2023-03-28T23:20:57.665Z,5.40
2023-03-28T23:24:02.455Z,5.30
2023-03-28T23:27:07.225Z,5.10
2023-03-28T23:30:12.999Z,5.00
2023-03-28T23:33:18.642Z,4.90
2023-03-28T23:36:21.767Z,4.70
2023-03-28T23:39:26.475Z,4.70
2023-03-28T23:42:29.600Z,4.60
2023-03-28T23:45:32.783Z,4.70
2023-03-28T23:48:36.229Z,4.80
2023-03-28T23:51:39.510Z,4.80
2023-03-28T23:54:45.530Z,4.80
2023-03-28T23:57:48.847Z,4.90
